sensor_id;sensor_type;location;lat;lon;timestamp;temperature;humidity
19192;DHT22;9728;48.194;16.346;2022-09-01T00:01:00;27.80;41.50
19192;DHT22;9728;48.194;16.346;2022-09-01T00:06:09;27.80;41.40
19192;DHT22;9728;48.194;16.346;2022-09-01T00:11:12;27.80;41.20
19192;DHT22;9728;48.194;16.346;2022-09-01T00:16:17;27.90;41.10
19192;DHT22;9728;48.194;16.346;2022-09-01T00:21:25;27.90;41.10
19192;DHT22;9728;48.194;16.346;2022-09-01T00:26:29;27.90;40.90
19192;DHT22;9728;48.194;16.346;2022-09-01T00:31:33;28.00;41.00
19192;DHT22;9728;48.194;16.346;2022-09-01T00:36:38;28.00;40.90
19192;DHT22;9728;48.194;16.346;2022-09-01T00:41:42;28.10;40.80
19192;DHT22;9728;48.194;16.346;2022-09-01T00:46:48;28.10;40.60
19192;DHT22;9728;48.194;16.346;2022-09-01T00:52:01;28.10;40.30
19192;DHT22;9728;48.194;16.346;2022-09-01T00:57:06;28.10;40.20
19192;DHT22;9728;48.194;16.346;2022-09-01T01:02:10;28.00;40.10
19192;DHT22;9728;48.194;16.346;2022-09-01T01:07:15;28.10;40.30
19192;DHT22;9728;48.194;16.346;2022-09-01T01:12:19;28.00;40.20
19192;DHT22;9728;48.194;16.346;2022-09-01T01:17:24;28.10;40.30
19192;DHT22;9728;48.194;16.346;2022-09-01T01:22:37;28.10;40.30
19192;DHT22;9728;48.194;16.346;2022-09-01T01:28:07;28.10;39.90
19192;DHT22;9728;48.194;16.346;2022-09-01T01:33:11;28.10;39.90
19192;DHT22;9728;48.194;16.346;2022-09-01T01:38:14;28.20;40.10
19192;DHT22;9728;48.194;16.346;2022-09-01T01:43:20;28.20;40.00
19192;DHT22;9728;48.194;16.346;2022-09-01T01:48:24;28.20;39.80
19192;DHT22;9728;48.194;16.346;2022-09-01T01:53:30;28.20;39.70
19192;DHT22;9728;48.194;16.346;2022-09-01T01:58:35;28.20;39.50
19192;DHT22;9728;48.194;16.346;2022-09-01T02:03:43;28.20;39.40
19192;DHT22;9728;48.194;16.346;2022-09-01T02:08:47;28.20;39.40
19192;DHT22;9728;48.194;16.346;2022-09-01T02:13:51;28.20;39.40
19192;DHT22;9728;48.194;16.346;2022-09-01T02:18:58;28.20;39.30
19192;DHT22;9728;48.194;16.346;2022-09-01T02:24:04;28.20;39.30
19192;DHT22;9728;48.194;16.346;2022-09-01T02:29:13;28.10;39.20
19192;DHT22;9728;48.194;16.346;2022-09-01T02:34:23;28.10;39.10
19192;DHT22;9728;48.194;16.346;2022-09-01T02:39:30;28.10;39.30
19192;DHT22;9728;48.194;16.346;2022-09-01T02:44:36;28.10;39.10
19192;DHT22;9728;48.194;16.346;2022-09-01T02:49:42;28.20;39.10
19192;DHT22;9728;48.194;16.346;2022-09-01T02:54:46;28.20;39.00
19192;DHT22;9728;48.194;16.346;2022-09-01T02:59:51;28.20;39.50
19192;DHT22;9728;48.194;16.346;2022-09-01T03:04:54;28.10;38.60
19192;DHT22;9728;48.194;16.346;2022-09-01T03:09:58;28.10;38.60
19192;DHT22;9728;48.194;16.346;2022-09-01T03:15:06;28.00;38.80
19192;DHT22;9728;48.194;16.346;2022-09-01T03:20:14;28.00;38.70
19192;DHT22;9728;48.194;16.346;2022-09-01T03:25:18;28.00;38.60
19192;DHT22;9728;48.194;16.346;2022-09-01T03:30:24;27.90;38.70
19192;DHT22;9728;48.194;16.346;2022-09-01T03:35:29;27.90;38.90
19192;DHT22;9728;48.194;16.346;2022-09-01T03:40:35;27.80;39.00
19192;DHT22;9728;48.194;16.346;2022-09-01T03:45:40;27.90;39.00
19192;DHT22;9728;48.194;16.346;2022-09-01T03:50:44;27.80;39.00
19192;DHT22;9728;48.194;16.346;2022-09-01T03:55:48;27.80;39.10
19192;DHT22;9728;48.194;16.346;2022-09-01T04:00:56;27.80;39.70
19192;DHT22;9728;48.194;16.346;2022-09-01T04:06:01;27.80;39.00
19192;DHT22;9728;48.194;16.346;2022-09-01T04:11:11;27.70;38.90
19192;DHT22;9728;48.194;16.346;2022-09-01T04:16:21;27.70;38.90
19192;DHT22;9728;48.194;16.346;2022-09-01T04:21:43;27.70;39.70
19192;DHT22;9728;48.194;16.346;2022-09-01T04:26:47;27.70;39.00
19192;DHT22;9728;48.194;16.346;2022-09-01T04:31:53;27.70;38.70
19192;DHT22;9728;48.194;16.346;2022-09-01T04:36:57;27.70;39.50
19192;DHT22;9728;48.194;16.346;2022-09-01T04:42:00;27.60;38.90
19192;DHT22;9728;48.194;16.346;2022-09-01T04:47:08;27.60;39.60
19192;DHT22;9728;48.194;16.346;2022-09-01T04:52:19;27.60;38.90
19192;DHT22;9728;48.194;16.346;2022-09-01T04:57:22;27.60;38.80
19192;DHT22;9728;48.194;16.346;2022-09-01T05:02:31;27.60;38.50
19192;DHT22;9728;48.194;16.346;2022-09-01T05:07:35;27.50;38.20
19192;DHT22;9728;48.194;16.346;2022-09-01T05:12:38;27.40;38.20
19192;DHT22;9728;48.194;16.346;2022-09-01T05:17:44;27.20;38.10
19192;DHT22;9728;48.194;16.346;2022-09-01T05:22:48;27.10;38.20
19192;DHT22;9728;48.194;16.346;2022-09-01T05:33:29;26.70;38.30
19192;DHT22;9728;48.194;16.346;2022-09-01T05:38:33;26.60;38.40
19192;DHT22;9728;48.194;16.346;2022-09-01T05:43:37;26.40;38.60
19192;DHT22;9728;48.194;16.346;2022-09-01T05:48:42;26.30;38.70
19192;DHT22;9728;48.194;16.346;2022-09-01T05:53:46;26.20;38.90
19192;DHT22;9728;48.194;16.346;2022-09-01T05:58:54;26.10;39.10
19192;DHT22;9728;48.194;16.346;2022-09-01T06:04:23;26.00;39.20
19192;DHT22;9728;48.194;16.346;2022-09-01T06:09:31;25.90;39.30
19192;DHT22;9728;48.194;16.346;2022-09-01T06:14:35;25.80;39.40
19192;DHT22;9728;48.194;16.346;2022-09-01T06:19:39;25.70;39.40
19192;DHT22;9728;48.194;16.346;2022-09-01T06:24:44;25.70;39.80
19192;DHT22;9728;48.194;16.346;2022-09-01T06:29:56;25.70;39.70
19192;DHT22;9728;48.194;16.346;2022-09-01T06:35:02;25.70;39.70
19192;DHT22;9728;48.194;16.346;2022-09-01T06:40:09;25.70;39.60
19192;DHT22;9728;48.194;16.346;2022-09-01T06:45:20;25.80;39.60
19192;DHT22;9728;48.194;16.346;2022-09-01T06:50:25;25.80;39.60
19192;DHT22;9728;48.194;16.346;2022-09-01T06:55:51;25.80;39.50
19192;DHT22;9728;48.194;16.346;2022-09-01T07:00:56;25.80;39.40
19192;DHT22;9728;48.194;16.346;2022-09-01T07:06:04;25.80;39.50
19192;DHT22;9728;48.194;16.346;2022-09-01T07:11:47;25.80;39.40
19192;DHT22;9728;48.194;16.346;2022-09-01T07:17:11;25.80;39.40
19192;DHT22;9728;48.194;16.346;2022-09-01T07:22:38;25.80;39.40
19192;DHT22;9728;48.194;16.346;2022-09-01T07:28:02;25.90;39.50
19192;DHT22;9728;48.194;16.346;2022-09-01T07:33:06;25.90;39.20
19192;DHT22;9728;48.194;16.346;2022-09-01T07:38:34;26.00;39.10
19192;DHT22;9728;48.194;16.346;2022-09-01T07:43:58;26.10;38.90
19192;DHT22;9728;48.194;16.346;2022-09-01T07:49:15;26.10;38.70
19192;DHT22;9728;48.194;16.346;2022-09-01T07:54:40;26.20;38.70
19192;DHT22;9728;48.194;16.346;2022-09-01T07:59:43;26.20;38.40
19192;DHT22;9728;48.194;16.346;2022-09-01T08:04:53;26.30;38.30
19192;DHT22;9728;48.194;16.346;2022-09-01T08:09:59;26.30;38.10
19192;DHT22;9728;48.194;16.346;2022-09-01T08:15:06;26.40;38.00
19192;DHT22;9728;48.194;16.346;2022-09-01T08:20:15;26.50;37.90
19192;DHT22;9728;48.194;16.346;2022-09-01T08:25:46;26.60;37.90
19192;DHT22;9728;48.194;16.346;2022-09-01T08:30:51;26.70;37.60
19192;DHT22;9728;48.194;16.346;2022-09-01T08:35:57;26.80;37.70
19192;DHT22;9728;48.194;16.346;2022-09-01T08:41:04;26.90;37.40
19192;DHT22;9728;48.194;16.346;2022-09-01T08:46:14;27.00;37.10
19192;DHT22;9728;48.194;16.346;2022-09-01T08:51:24;27.20;37.50
19192;DHT22;9728;48.194;16.346;2022-09-01T08:56:34;27.30;36.10
19192;DHT22;9728;48.194;16.346;2022-09-01T09:01:43;27.50;36.30
19192;DHT22;9728;48.194;16.346;2022-09-01T09:06:55;27.70;35.90
19192;DHT22;9728;48.194;16.346;2022-09-01T09:12:25;27.90;35.40
19192;DHT22;9728;48.194;16.346;2022-09-01T09:17:35;28.00;34.70
19192;DHT22;9728;48.194;16.346;2022-09-01T09:22:41;28.30;34.30
19192;DHT22;9728;48.194;16.346;2022-09-01T09:27:48;28.40;34.70
19192;DHT22;9728;48.194;16.346;2022-09-01T09:33:03;28.70;33.80
19192;DHT22;9728;48.194;16.346;2022-09-01T09:38:27;28.80;34.10
19192;DHT22;9728;48.194;16.346;2022-09-01T09:43:38;29.00;34.00
19192;DHT22;9728;48.194;16.346;2022-09-01T09:48:46;29.20;33.00
19192;DHT22;9728;48.194;16.346;2022-09-01T09:53:51;29.30;33.30
19192;DHT22;9728;48.194;16.346;2022-09-01T09:58:57;29.50;33.80
19192;DHT22;9728;48.194;16.346;2022-09-01T10:04:01;29.60;32.70
19192;DHT22;9728;48.194;16.346;2022-09-01T10:09:07;29.80;32.80
19192;DHT22;9728;48.194;16.346;2022-09-01T10:14:16;30.00;33.30
19192;DHT22;9728;48.194;16.346;2022-09-01T10:19:47;30.20;31.70
19192;DHT22;9728;48.194;16.346;2022-09-01T10:24:51;30.30;31.80
19192;DHT22;9728;48.194;16.346;2022-09-01T10:30:03;30.30;31.70
19192;DHT22;9728;48.194;16.346;2022-09-01T10:35:22;30.40;30.50
19192;DHT22;9728;48.194;16.346;2022-09-01T10:40:38;30.50;31.30
19192;DHT22;9728;48.194;16.346;2022-09-01T10:45:46;30.70;30.50
19192;DHT22;9728;48.194;16.346;2022-09-01T10:56:41;31.10;30.00
19192;DHT22;9728;48.194;16.346;2022-09-01T11:02:20;31.20;30.60
19192;DHT22;9728;48.194;16.346;2022-09-01T11:07:32;31.40;29.70
19192;DHT22;9728;48.194;16.346;2022-09-01T11:13:14;31.60;29.60
19192;DHT22;9728;48.194;16.346;2022-09-01T11:18:25;31.70;29.40
19192;DHT22;9728;48.194;16.346;2022-09-01T11:23:30;31.80;29.30
19192;DHT22;9728;48.194;16.346;2022-09-01T11:28:39;31.80;29.70
19192;DHT22;9728;48.194;16.346;2022-09-01T11:33:51;31.80;29.20
19192;DHT22;9728;48.194;16.346;2022-09-01T11:39:03;31.80;28.50
19192;DHT22;9728;48.194;16.346;2022-09-01T11:44:12;31.70;28.70
19192;DHT22;9728;48.194;16.346;2022-09-01T11:49:26;31.70;28.70
19192;DHT22;9728;48.194;16.346;2022-09-01T11:54:38;31.70;28.40
19192;DHT22;9728;48.194;16.346;2022-09-01T11:59:42;31.80;28.30
19192;DHT22;9728;48.194;16.346;2022-09-01T12:04:48;31.70;28.70
19192;DHT22;9728;48.194;16.346;2022-09-01T12:09:52;31.70;28.40
19192;DHT22;9728;48.194;16.346;2022-09-01T12:14:57;31.60;28.40
19192;DHT22;9728;48.194;16.346;2022-09-01T12:20:30;31.50;28.40
19192;DHT22;9728;48.194;16.346;2022-09-01T12:25:34;31.30;27.80
19192;DHT22;9728;48.194;16.346;2022-09-01T12:30:40;31.20;28.50
19192;DHT22;9728;48.194;16.346;2022-09-01T12:35:46;31.20;28.30
19192;DHT22;9728;48.194;16.346;2022-09-01T12:40:51;31.20;28.20
19192;DHT22;9728;48.194;16.346;2022-09-01T12:45:54;31.10;28.20
19192;DHT22;9728;48.194;16.346;2022-09-01T12:51:06;31.10;28.30
19192;DHT22;9728;48.194;16.346;2022-09-01T12:56:25;31.00;28.00
19192;DHT22;9728;48.194;16.346;2022-09-01T13:01:33;30.90;27.90
19192;DHT22;9728;48.194;16.346;2022-09-01T13:06:38;30.90;28.40
19192;DHT22;9728;48.194;16.346;2022-09-01T13:11:43;31.00;28.50
19192;DHT22;9728;48.194;16.346;2022-09-01T13:17:08;31.10;28.60
19192;DHT22;9728;48.194;16.346;2022-09-01T13:22:16;31.20;28.40
19192;DHT22;9728;48.194;16.346;2022-09-01T13:27:19;31.40;28.00
19192;DHT22;9728;48.194;16.346;2022-09-01T13:32:24;31.40;27.90
19192;DHT22;9728;48.194;16.346;2022-09-01T13:37:29;31.50;27.70
19192;DHT22;9728;48.194;16.346;2022-09-01T13:42:33;31.50;27.50
19192;DHT22;9728;48.194;16.346;2022-09-01T13:47:36;31.50;27.70
19192;DHT22;9728;48.194;16.346;2022-09-01T13:53:01;31.40;27.40
19192;DHT22;9728;48.194;16.346;2022-09-01T13:58:05;31.40;27.20
19192;DHT22;9728;48.194;16.346;2022-09-01T14:03:12;31.30;27.40
19192;DHT22;9728;48.194;16.346;2022-09-01T14:08:19;31.30;27.00
19192;DHT22;9728;48.194;16.346;2022-09-01T14:13:24;31.30;27.00
19192;DHT22;9728;48.194;16.346;2022-09-01T14:18:27;31.30;27.30
19192;DHT22;9728;48.194;16.346;2022-09-01T14:23:35;31.30;27.30
19192;DHT22;9728;48.194;16.346;2022-09-01T14:28:39;31.30;27.00
19192;DHT22;9728;48.194;16.346;2022-09-01T14:33:43;31.30;27.00
19192;DHT22;9728;48.194;16.346;2022-09-01T14:38:49;31.20;27.00
19192;DHT22;9728;48.194;16.346;2022-09-01T14:43:53;31.10;26.60
19192;DHT22;9728;48.194;16.346;2022-09-01T14:49:04;31.00;27.20
19192;DHT22;9728;48.194;16.346;2022-09-01T14:54:09;30.90;26.60
19192;DHT22;9728;48.194;16.346;2022-09-01T14:59:12;30.80;26.40
19192;DHT22;9728;48.194;16.346;2022-09-01T15:04:16;30.60;26.30
19192;DHT22;9728;48.194;16.346;2022-09-01T15:09:20;30.50;26.20
19192;DHT22;9728;48.194;16.346;2022-09-01T15:14:24;30.30;26.10
19192;DHT22;9728;48.194;16.346;2022-09-01T15:19:27;30.20;26.40
19192;DHT22;9728;48.194;16.346;2022-09-01T15:24:32;30.10;26.40
19192;DHT22;9728;48.194;16.346;2022-09-01T15:29:35;29.90;26.40
19192;DHT22;9728;48.194;16.346;2022-09-01T15:34:46;29.80;26.60
19192;DHT22;9728;48.194;16.346;2022-09-01T15:39:51;29.60;26.60
19192;DHT22;9728;48.194;16.346;2022-09-01T15:44:54;29.50;26.50
19192;DHT22;9728;48.194;16.346;2022-09-01T15:49:57;29.40;26.60
19192;DHT22;9728;48.194;16.346;2022-09-01T15:55:04;29.30;26.60
19192;DHT22;9728;48.194;16.346;2022-09-01T16:00:08;29.20;26.50
19192;DHT22;9728;48.194;16.346;2022-09-01T16:05:13;29.10;26.50
19192;DHT22;9728;48.194;16.346;2022-09-01T16:10:18;29.10;26.80
19192;DHT22;9728;48.194;16.346;2022-09-01T16:15:23;29.00;26.80
19192;DHT22;9728;48.194;16.346;2022-09-01T16:20:34;28.90;26.90
19192;DHT22;9728;48.194;16.346;2022-09-01T16:25:39;28.80;26.70
19192;DHT22;9728;48.194;16.346;2022-09-01T16:30:44;28.70;26.90
19192;DHT22;9728;48.194;16.346;2022-09-01T16:35:57;28.70;26.80
19192;DHT22;9728;48.194;16.346;2022-09-01T16:41:08;28.60;26.70
19192;DHT22;9728;48.194;16.346;2022-09-01T16:46:19;28.50;26.80
19192;DHT22;9728;48.194;16.346;2022-09-01T16:51:28;28.40;26.90
19192;DHT22;9728;48.194;16.346;2022-09-01T16:56:44;28.40;26.90
19192;DHT22;9728;48.194;16.346;2022-09-01T17:01:57;28.30;26.70
19192;DHT22;9728;48.194;16.346;2022-09-01T17:07:08;28.30;27.00
19192;DHT22;9728;48.194;16.346;2022-09-01T17:12:32;28.20;27.10
19192;DHT22;9728;48.194;16.346;2022-09-01T17:17:43;28.10;27.00
19192;DHT22;9728;48.194;16.346;2022-09-01T17:22:49;28.10;27.20
19192;DHT22;9728;48.194;16.346;2022-09-01T17:27:59;28.00;27.30
19192;DHT22;9728;48.194;16.346;2022-09-01T17:33:13;28.00;27.40
19192;DHT22;9728;48.194;16.346;2022-09-01T17:38:27;27.90;27.40
19192;DHT22;9728;48.194;16.346;2022-09-01T17:43:45;27.80;27.50
19192;DHT22;9728;48.194;16.346;2022-09-01T17:48:55;27.80;27.60
19192;DHT22;9728;48.194;16.346;2022-09-01T17:54:11;27.70;27.70
19192;DHT22;9728;48.194;16.346;2022-09-01T17:59:20;27.70;27.70
19192;DHT22;9728;48.194;16.346;2022-09-01T18:04:41;27.60;27.80
19192;DHT22;9728;48.194;16.346;2022-09-01T18:09:52;27.50;27.80
19192;DHT22;9728;48.194;16.346;2022-09-01T18:15:01;27.50;28.00
19192;DHT22;9728;48.194;16.346;2022-09-01T18:20:17;27.50;28.10
19192;DHT22;9728;48.194;16.346;2022-09-01T18:25:25;27.40;28.10
19192;DHT22;9728;48.194;16.346;2022-09-01T18:30:38;27.30;28.20
19192;DHT22;9728;48.194;16.346;2022-09-01T18:36:05;27.20;28.30
19192;DHT22;9728;48.194;16.346;2022-09-01T18:41:24;27.20;28.50
19192;DHT22;9728;48.194;16.346;2022-09-01T18:46:36;27.10;28.50
19192;DHT22;9728;48.194;16.346;2022-09-01T18:51:49;27.10;28.70
19192;DHT22;9728;48.194;16.346;2022-09-01T18:56:58;27.00;28.90
19192;DHT22;9728;48.194;16.346;2022-09-01T19:02:14;27.00;29.00
19192;DHT22;9728;48.194;16.346;2022-09-01T19:07:30;26.90;29.20
19192;DHT22;9728;48.194;16.346;2022-09-01T19:12:42;26.80;29.20
19192;DHT22;9728;48.194;16.346;2022-09-01T19:18:02;26.80;29.20
19192;DHT22;9728;48.194;16.346;2022-09-01T19:23:14;26.80;29.50
19192;DHT22;9728;48.194;16.346;2022-09-01T19:28:21;26.70;29.40
19192;DHT22;9728;48.194;16.346;2022-09-01T19:33:32;26.60;29.50
19192;DHT22;9728;48.194;16.346;2022-09-01T19:38:38;26.60;29.60
19192;DHT22;9728;48.194;16.346;2022-09-01T19:43:42;26.50;29.60
19192;DHT22;9728;48.194;16.346;2022-09-01T19:48:49;26.50;29.70
19192;DHT22;9728;48.194;16.346;2022-09-01T19:53:56;26.40;29.90
19192;DHT22;9728;48.194;16.346;2022-09-01T19:59:09;26.30;30.00
19192;DHT22;9728;48.194;16.346;2022-09-01T20:04:26;26.30;30.20
19192;DHT22;9728;48.194;16.346;2022-09-01T20:09:38;26.20;30.40
19192;DHT22;9728;48.194;16.346;2022-09-01T20:15:08;26.20;30.80
19192;DHT22;9728;48.194;16.346;2022-09-01T20:20:16;26.10;31.10
19192;DHT22;9728;48.194;16.346;2022-09-01T20:25:24;26.20;31.20
19192;DHT22;9728;48.194;16.346;2022-09-01T20:30:33;26.30;31.20
19192;DHT22;9728;48.194;16.346;2022-09-01T20:35:44;26.40;31.30
19192;DHT22;9728;48.194;16.346;2022-09-01T20:40:49;26.40;31.20
19192;DHT22;9728;48.194;16.346;2022-09-01T20:45:52;26.50;31.20
19192;DHT22;9728;48.194;16.346;2022-09-01T20:50:59;26.60;31.20
19192;DHT22;9728;48.194;16.346;2022-09-01T20:56:08;26.60;31.20
19192;DHT22;9728;48.194;16.346;2022-09-01T21:01:15;26.70;31.20
19192;DHT22;9728;48.194;16.346;2022-09-01T21:06:28;26.80;31.00
19192;DHT22;9728;48.194;16.346;2022-09-01T21:11:40;26.90;30.90
19192;DHT22;9728;48.194;16.346;2022-09-01T21:16:55;26.90;30.90
19192;DHT22;9728;48.194;16.346;2022-09-01T21:22:04;26.90;30.70
19192;DHT22;9728;48.194;16.346;2022-09-01T21:27:12;26.90;30.60
19192;DHT22;9728;48.194;16.346;2022-09-01T21:32:17;26.90;30.70
19192;DHT22;9728;48.194;16.346;2022-09-01T21:37:23;26.90;30.70
19192;DHT22;9728;48.194;16.346;2022-09-01T21:42:28;26.80;30.80
19192;DHT22;9728;48.194;16.346;2022-09-01T21:47:32;26.90;30.80
19192;DHT22;9728;48.194;16.346;2022-09-01T21:52:37;26.80;30.60
19192;DHT22;9728;48.194;16.346;2022-09-01T21:57:41;26.80;30.70
19192;DHT22;9728;48.194;16.346;2022-09-01T22:02:45;26.80;30.80
19192;DHT22;9728;48.194;16.346;2022-09-01T22:07:49;26.80;30.90
19192;DHT22;9728;48.194;16.346;2022-09-01T22:12:54;26.80;30.90
19192;DHT22;9728;48.194;16.346;2022-09-01T22:17:57;26.80;30.80
19192;DHT22;9728;48.194;16.346;2022-09-01T22:23:02;26.80;30.70
19192;DHT22;9728;48.194;16.346;2022-09-01T22:28:05;26.80;30.90
19192;DHT22;9728;48.194;16.346;2022-09-01T22:33:08;26.80;31.00
19192;DHT22;9728;48.194;16.346;2022-09-01T22:38:15;26.80;31.10
19192;DHT22;9728;48.194;16.346;2022-09-01T22:43:19;26.90;31.10
19192;DHT22;9728;48.194;16.346;2022-09-01T22:48:25;26.90;31.00
19192;DHT22;9728;48.194;16.346;2022-09-01T22:53:30;27.00;31.10
19192;DHT22;9728;48.194;16.346;2022-09-01T22:58:33;27.10;31.00
19192;DHT22;9728;48.194;16.346;2022-09-01T23:03:37;27.10;31.00
19192;DHT22;9728;48.194;16.346;2022-09-01T23:08:42;27.20;31.00
19192;DHT22;9728;48.194;16.346;2022-09-01T23:13:45;27.20;30.90
19192;DHT22;9728;48.194;16.346;2022-09-01T23:18:49;27.20;30.90
19192;DHT22;9728;48.194;16.346;2022-09-01T23:23:55;27.30;30.90
19192;DHT22;9728;48.194;16.346;2022-09-01T23:29:00;27.30;30.90
19192;DHT22;9728;48.194;16.346;2022-09-01T23:34:05;27.40;30.90
19192;DHT22;9728;48.194;16.346;2022-09-01T23:39:10;27.40;30.80
19192;DHT22;9728;48.194;16.346;2022-09-01T23:44:14;27.50;30.70
19192;DHT22;9728;48.194;16.346;2022-09-01T23:49:18;27.50;30.70
19192;DHT22;9728;48.194;16.346;2022-09-01T23:54:22;27.50;30.60
19192;DHT22;9728;48.194;16.346;2022-09-01T23:59:27;27.50;30.50
